Time;durP1;ratioP1;P1;durP2;ratioP2;P2;SDS_P1;SDS_P2;PMS_P1;PMS_P2;Temp;Humidity;BMP_temperature;BMP_pressure;BME280_temperature;BME280_humidity;BME280_pressure;Samples;Min_cycle;Max_cycle;Signal;HPM_P1;HPM_P2
2021/12/06 00:00:47;;;;;;;19.95;8.75;;;;;;;;;;5024259;28;20026;-64
2021/12/06 00:03:20;;;;;;;19.85;9.07;;;;;;;;;;5024575;28;20057;-62
2021/12/06 00:05:47;;;;;;;22.27;10.85;;;;;;;;;;5009714;28;20030;-63
2021/12/06 00:08:13;;;;;;;21.27;10.30;;;;;;;;;;5024804;28;20072;-64
2021/12/06 00:10:40;;;;;;;20.98;10.45;;;;;;;;;;5024933;28;20623;-65
2021/12/06 00:13:06;;;;;;;20.70;10.40;;;;;;;;;;5009520;28;20033;-63
2021/12/06 00:15:33;;;;;;;21.60;10.00;;;;;;;;;;5012333;28;20026;-64
2021/12/06 00:18:00;;;;;;;23.55;9.43;;;;;;;;;;5011122;28;20076;-64
2021/12/06 00:20:26;;;;;;;24.20;9.88;;;;;;;;;;5011221;28;20026;-65
2021/12/06 00:22:52;;;;;;;23.75;11.23;;;;;;;;;;5010756;28;20113;-65
2021/12/06 00:25:18;;;;;;;20.65;10.63;;;;;;;;;;5011112;28;20034;-65
2021/12/06 00:27:44;;;;;;;21.33;10.48;;;;;;;;;;5026184;28;20033;-64
2021/12/06 00:30:16;;;;;;;21.63;10.02;;;;;;;;;;5011146;28;20018;-63
2021/12/06 00:32:43;;;;;;;26.77;11.32;;;;;;;;;;5027172;28;20022;-64
2021/12/06 00:35:18;;;;;;;24.35;10.95;;;;;;;;;;5027753;28;20103;-64
2021/12/06 00:37:53;;;;;;;29.25;11.88;;;;;;;;;;5012753;28;20551;-65
2021/12/06 00:40:19;;;;;;;28.27;12.32;;;;;;;;;;5012529;28;20057;-69
2021/12/06 00:42:45;;;;;;;22.98;12.15;;;;;;;;;;5012164;28;20037;-65
2021/12/06 00:45:12;;;;;;;26.55;13.05;;;;;;;;;;5012451;28;20028;-64
2021/12/06 00:47:38;;;;;;;25.60;12.02;;;;;;;;;;5027461;28;20048;-64
2021/12/06 00:50:05;;;;;;;29.63;13.50;;;;;;;;;;5027990;28;20033;-66
2021/12/06 00:52:31;;;;;;;29.30;13.85;;;;;;;;;;5027359;28;20025;-65
2021/12/06 00:54:57;;;;;;;28.27;15.10;;;;;;;;;;5012250;28;20029;-64
2021/12/06 00:57:23;;;;;;;29.23;14.98;;;;;;;;;;5028216;28;20030;-65
2021/12/06 00:59:49;;;;;;;26.15;13.93;;;;;;;;;;5028348;28;20037;-65
2021/12/06 01:02:16;;;;;;;29.23;15.52;;;;;;;;;;5028508;28;20037;-65
2021/12/06 01:04:44;;;;;;;31.05;15.27;;;;;;;;;;5028065;28;20087;-65
2021/12/06 01:07:10;;;;;;;34.03;15.27;;;;;;;;;;5012535;28;20045;-65
2021/12/06 01:09:37;;;;;;;29.88;15.82;;;;;;;;;;5012141;28;20022;-65
2021/12/06 01:12:03;;;;;;;29.63;16.02;;;;;;;;;;5027671;28;20486;-65
2021/12/06 01:14:29;;;;;;;34.13;16.85;;;;;;;;;;5031515;28;20030;-65
2021/12/06 01:16:55;;;;;;;34.85;17.35;;;;;;;;;;5031474;28;20036;-66
2021/12/06 01:19:27;;;;;;;32.70;18.33;;;;;;;;;;5015962;28;20044;-65
2021/12/06 01:22:12;;;;;;;38.28;19.73;;;;;;;;;;5031067;28;20033;-65
2021/12/06 01:24:47;;;;;;;38.88;18.80;;;;;;;;;;5016311;28;20386;-64
2021/12/06 01:32:47;;;;;;;35.85;16.33;;;;;;;;;;5015443;28;20030;-64
2021/12/06 01:40:35;;;;;;;40.53;18.08;;;;;;;;;;5015999;28;20049;-65
2021/12/06 01:43:04;;;;;;;33.80;16.73;;;;;;;;;;5015231;28;20029;-65
2021/12/06 01:45:30;;;;;;;37.00;18.58;;;;;;;;;;5015544;28;20034;-64
2021/12/06 01:47:56;;;;;;;37.92;20.35;;;;;;;;;;5030678;28;20109;-65
2021/12/06 01:50:28;;;;;;;39.65;19.65;;;;;;;;;;5015388;28;20018;-65
2021/12/06 01:52:55;;;;;;;37.65;19.50;;;;;;;;;;5030499;28;20046;-65
2021/12/06 01:55:23;;;;;;;50.83;21.37;;;;;;;;;;5030619;28;20026;-65
2021/12/06 01:57:49;;;;;;;41.35;20.67;;;;;;;;;;5030345;28;20269;-65
2021/12/06 02:00:22;;;;;;;47.25;21.65;;;;;;;;;;5015263;28;20383;-65
2021/12/06 02:02:48;;;;;;;43.72;24.20;;;;;;;;;;5030364;28;20084;-65
2021/12/06 02:05:14;;;;;;;46.67;23.77;;;;;;;;;;5015218;28;20030;-65
2021/12/06 02:07:41;;;;;;;43.45;23.08;;;;;;;;;;5015040;28;20478;-64
2021/12/06 02:10:08;;;;;;;47.90;22.13;;;;;;;;;;5015281;28;20029;-65
2021/12/06 02:12:34;;;;;;;46.40;22.98;;;;;;;;;;5014871;28;20060;-65
2021/12/06 02:15:14;;;;;;;46.83;22.25;;;;;;;;;;5015165;28;20033;-65
2021/12/06 02:17:44;;;;;;;54.25;26.05;;;;;;;;;;5014954;28;20385;-65
2021/12/06 02:20:23;;;;;;;45.45;21.08;;;;;;;;;;5014917;28;20021;-65
2021/12/06 02:22:49;;;;;;;45.08;24.05;;;;;;;;;;5030052;28;20141;-64
2021/12/06 02:25:18;;;;;;;41.17;21.73;;;;;;;;;;5029180;28;20537;-65
2021/12/06 02:27:44;;;;;;;42.80;21.58;;;;;;;;;;5014665;28;20067;-65
2021/12/06 02:30:12;;;;;;;45.53;21.40;;;;;;;;;;5014685;28;20022;-64
2021/12/06 02:32:38;;;;;;;48.20;22.45;;;;;;;;;;5029782;28;20026;-64
2021/12/06 02:35:11;;;;;;;47.65;21.92;;;4.90;99.90;;;;;;5030091;28;20034;-65
2021/12/06 02:37:37;;;;;;;49.58;21.15;;;2.40;99.90;;;;;;5014607;28;20025;-65
2021/12/06 02:40:15;;;;;;;42.47;22.23;;;2.40;99.90;;;;;;5014642;28;20085;-65
2021/12/06 02:42:43;;;;;;;48.92;21.52;;;2.30;99.90;;;;;;5014341;28;20041;-65
2021/12/06 02:45:15;;;;;;;46.65;22.98;;;2.40;99.90;;;;;;5029506;28;20030;-66
2021/12/06 02:47:41;;;;;;;43.22;23.67;;;2.30;99.90;;;;;;5014484;28;20033;-65
2021/12/06 02:50:10;;;;;;;49.40;24.33;;;2.30;99.90;;;;;;5014410;28;20026;-65
2021/12/06 02:52:37;;;;;;;46.05;21.42;;;2.30;99.90;;;;;;5014250;28;20022;-65
2021/12/06 02:55:21;;;;;;;43.15;22.50;;;2.20;99.90;;;;;;5014451;28;20038;-65
2021/12/06 02:57:53;;;;;;;48.28;21.90;;;2.20;99.90;;;;;;5014165;28;20402;-65
2021/12/06 03:00:20;;;;;;;47.47;22.60;;;2.20;99.90;;;;;;5029549;28;20036;-65
2021/12/06 03:02:45;;;;;;;47.42;24.15;;;2.30;99.90;;;;;;5029038;28;20029;-68
2021/12/06 03:05:11;;;;;;;51.30;23.30;;;2.30;99.90;;;;;;5029266;28;20033;-65
2021/12/06 03:07:38;;;;;;;50.75;22.80;;;2.30;99.90;;;;;;5013910;28;20018;-65
2021/12/06 03:10:05;;;;;;;60.58;24.38;;;;;;;;;;5013975;28;20029;-65
2021/12/06 03:12:31;;;;;;;52.97;22.60;;;2.40;99.90;;;;;;5029194;28;20025;-65
2021/12/06 03:14:59;;;;;;;51.42;23.52;;;2.60;99.90;;;;;;5029168;28;20030;-65
2021/12/06 03:17:26;;;;;;;50.33;24.60;;;;;;;;;;5013972;28;20026;-65
2021/12/06 03:19:53;;;;;;;55.28;24.63;;;;;;;;;;5013815;28;20029;-65
2021/12/06 03:22:20;;;;;;;56.50;24.92;;;;;;;;;;5029104;28;20034;-64
2021/12/06 03:24:46;;;;;;;54.83;25.25;;;;;;;;;;5013629;28;20021;-65
2021/12/06 03:27:13;;;;;;;50.47;24.27;;;;;;;;;;5028960;28;20026;-65
2021/12/06 03:29:39;;;;;;;51.90;25.20;;;;;;;;;;5028840;28;20049;-65
2021/12/06 03:32:06;;;;;;;53.33;27.27;;;;;;;;;;5013527;28;20014;-65
2021/12/06 03:34:32;;;;;;;53.40;24.60;;;;;;;;;;5028800;28;20036;-65
2021/12/06 03:36:59;;;;;;;54.05;27.95;;;;;;;;;;5028462;28;20157;-65
2021/12/06 03:39:27;;;;;;;56.17;25.52;;;;;;;;;;5013247;28;20021;-64
2021/12/06 03:41:54;;;;;;;53.22;23.65;;;;;;;;;;5028303;28;20087;-65
2021/12/06 03:44:20;;;;;;;52.42;23.50;;;;;;;;;;5028506;28;20029;-65
2021/12/06 03:46:51;;;;;;;46.88;23.63;;;;;;;;;;5028635;28;20026;-65
2021/12/06 03:49:18;;;;;;;56.17;25.52;;;;;;;;;;5013630;28;20026;-65
2021/12/06 03:51:44;;;;;;;49.67;25.13;;;;;;;;;;5012859;28;20026;-65
2021/12/06 03:54:11;;;;;;;49.17;24.52;;;;;;;;;;5013035;28;20033;-65
2021/12/06 03:56:38;;;;;;;52.90;24.90;;;;;;;;;;5013281;28;20026;-66
2021/12/06 03:59:04;;;;;;;55.00;26.08;;;;;;;;;;5013168;28;20072;-65
2021/12/06 04:01:31;;;;;;;45.95;23.20;;;;;;;;;;5028560;28;20084;-64
2021/12/06 04:03:58;;;;;;;44.22;22.75;;;;;;;;;;5012978;28;20053;-65
2021/12/06 04:06:24;;;;;;;46.53;23.02;;;;;;;;;;5013163;28;20525;-65
2021/12/06 04:08:50;;;;;;;46.88;22.65;;;;;;;;;;5013438;28;20405;-65
2021/12/06 04:11:16;;;;;;;52.50;26.45;;;;;;;;;;5013497;28;20037;-65
2021/12/06 04:13:43;;;;;;;47.55;23.27;;;;;;;;;;5027960;28;20501;-65
2021/12/06 04:16:09;;;;;;;52.42;25.83;;;;;;;;;;5012960;28;20052;-65
2021/12/06 04:18:35;;;;;;;46.63;25.00;;;;;;;;;;5027933;28;20121;-65
2021/12/06 04:21:01;;;;;;;46.70;25.05;;;;;;;;;;5013320;28;20478;-65
2021/12/06 04:23:27;;;;;;;46.15;26.02;;;;;;;;;;5012597;28;20071;-65
2021/12/06 04:25:53;;;;;;;45.38;22.40;;;;;;;;;;5012729;28;20122;-65
2021/12/06 04:28:20;;;;;;;43.72;22.58;;;;;;;;;;5012700;28;20037;-65
2021/12/06 04:30:47;;;;;;;47.30;21.27;;;;;;;;;;5027947;28;20053;-65
2021/12/06 04:33:13;;;;;;;50.97;24.45;;;;;;;;;;5027417;28;20029;-65
2021/12/06 04:35:39;;;;;;;48.25;23.73;;;;;;;;;;5012390;28;20502;-64
2021/12/06 04:38:06;;;;;;;50.42;23.40;;;;;;;;;;5027672;28;20029;-64
2021/12/06 04:40:32;;;;;;;53.70;24.05;;;;;;;;;;5012790;28;20441;-64
2021/12/06 04:42:58;;;;;;;48.83;24.35;;;;;;;;;;5027484;28;20112;-64
2021/12/06 04:45:25;;;;;;;52.35;24.60;;;;;;;;;;5012441;28;20061;-65
2021/12/06 04:47:51;;;;;;;52.05;24.00;;;;;;;;;;5011876;28;20030;-64
2021/12/06 04:50:18;;;;;;;58.22;25.42;;;;;;;;;;5012490;28;20357;-65
2021/12/06 04:52:44;;;;;;;55.55;24.13;;;;;;;;;;5012562;28;20026;-64
2021/12/06 04:55:14;;;;;;;58.70;26.38;;;;;;;;;;5012615;28;20029;-65
2021/12/06 04:57:41;;;;;;;56.20;25.80;;;;;;;;;;5012485;28;20061;-64
2021/12/06 05:00:14;;;;;;;57.13;23.83;;;;;;;;;;5027608;28;20022;-65
2021/12/06 05:02:41;;;;;;;49.75;22.75;;;;;;;;;;5012174;28;20474;-65
2021/12/06 05:05:13;;;;;;;53.92;23.65;;;;;;;;;;5027401;28;20030;-64
2021/12/06 05:07:41;;;;;;;51.85;25.35;;;;;;;;;;5012313;28;20033;-64
2021/12/06 05:10:08;;;;;;;50.63;22.35;;;;;;;;;;5027263;28;20482;-63
2021/12/06 05:12:34;;;;;;;55.50;24.38;;;;;;;;;;5026968;28;20121;-65
2021/12/06 05:15:00;;;;;;;51.80;22.23;;;;;;;;;;5027594;28;20097;-66
2021/12/06 05:17:28;;;;;;;53.17;23.70;;;;;;;;;;5012201;28;20025;-65
2021/12/06 05:19:54;;;;;;;56.63;25.17;;;;;;;;;;5012542;28;20026;-65
2021/12/06 05:22:22;;;;;;;45.78;22.88;;;;;;;;;;5027135;28;20109;-64
2021/12/06 05:24:48;;;;;;;44.70;24.10;;;;;;;;;;5011991;28;20541;-64
2021/12/06 05:27:14;;;;;;;46.80;24.25;;;;;;;;;;5012232;28;20022;-66
2021/12/06 05:29:45;;;;;;;44.97;22.55;;;;;;;;;;5012087;28;20018;-65
2021/12/06 05:32:11;;;;;;;44.00;21.58;;;;;;;;;;5026776;28;20038;-65
2021/12/06 05:34:41;;;;;;;45.20;21.95;;;;;;;;;;5011810;28;20302;-66
2021/12/06 05:37:08;;;;;;;47.90;23.65;;;;;;;;;;5012532;28;20022;-65
2021/12/06 05:39:34;;;;;;;42.92;21.02;;;;;;;;;;5012431;28;20021;-65
2021/12/06 05:42:03;;;;;;;45.03;22.70;;;;;;;;;;5012258;28;20026;-65
2021/12/06 05:44:29;;;;;;;46.88;21.92;;;;;;;;;;5012279;28;20045;-65
2021/12/06 05:46:56;;;;;;;42.47;21.45;;;;;;;;;;5011681;28;20417;-64
2021/12/06 05:49:22;;;;;;;44.67;20.63;;;;;;;;;;5011296;28;20033;-64
2021/12/06 05:51:48;;;;;;;45.60;22.10;;;;;;;;;;5026585;28;20023;-64
2021/12/06 05:54:14;;;;;;;43.50;21.25;;;;;;;;;;5026997;28;20034;-64
2021/12/06 05:56:40;;;;;;;40.55;20.30;;;;;;;;;;5011911;28;20080;-64
2021/12/06 05:59:06;;;;;;;45.95;23.67;;;;;;;;;;5011981;28;20022;-64
2021/12/06 06:01:33;;;;;;;45.42;21.75;;;;;;;;;;5015171;28;20026;-66
2021/12/06 06:04:01;;;;;;;44.55;21.75;;;;;;;;;;5030232;28;20241;-64
2021/12/06 06:06:31;;;;;;;40.78;22.60;;;;;;;;;;5015186;28;20478;-64
2021/12/06 06:08:57;;;;;;;41.67;22.77;;;;;;;;;;5015012;28;20036;-64
2021/12/06 06:11:23;;;;;;;43.65;21.20;;;;;;;;;;5030042;28;20057;-64
2021/12/06 06:13:49;;;;;;;40.67;20.73;;;;;;;;;;5014873;28;20034;-64
2021/12/06 06:16:20;;;;;;;45.90;20.88;;;;;;;;;;5092336;23;20043;-65
2021/12/06 06:18:47;;;;;;;47.78;23.42;;;;;;;;;;5093711;28;20494;-64
2021/12/06 06:21:13;;;;;;;38.45;19.83;;;;;;;;;;5091974;28;20030;-65
2021/12/06 06:23:39;;;;;;;42.17;22.63;;;;;;;;;;5093030;28;20095;-64
2021/12/06 06:26:05;;;;;;;41.88;20.63;;;;;;;;;;5093160;28;20047;-65
2021/12/06 06:28:31;;;;;;;37.83;19.58;;;;;;;;;;5091878;28;20147;-65
2021/12/06 06:30:57;;;;;;;37.85;20.55;;;;;;;;;;5092193;28;20020;-64
2021/12/06 06:33:23;;;;;;;44.50;20.35;;;;;;;;;;5091458;28;20024;-65
2021/12/06 06:35:49;;;;;;;40.42;20.40;;;;;;;;;;5090164;28;20057;-66
2021/12/06 06:38:16;;;;;;;36.55;19.58;;;;;;;;;;5084166;28;20055;-64
2021/12/06 06:40:43;;;;;;;45.33;21.67;;;;;;;;;;5080851;28;20021;-65
2021/12/06 06:43:09;;;;;;;41.35;21.45;;;;;;;;;;5072408;28;20021;-64
2021/12/06 06:45:35;;;;;;;42.83;22.63;;;;;;;;;;5089480;28;20028;-64
2021/12/06 06:48:01;;;;;;;42.53;20.63;;;;;;;;;;5091444;28;20483;-66
2021/12/06 06:50:27;;;;;;;42.75;22.00;;;;;;;;;;5071451;28;20021;-66
2021/12/06 06:52:54;;;;;;;45.92;22.13;;;;;;;;;;5078746;28;20044;-65
2021/12/06 06:55:20;;;;;;;45.70;22.88;;;;;;;;;;5091310;28;20539;-64
2021/12/06 06:57:46;;;;;;;41.53;20.42;;;;;;;;;;5092684;28;20074;-65
2021/12/06 07:00:18;;;;;;;45.20;21.42;;;;;;;;;;5090899;28;20023;-65
2021/12/06 07:02:44;;;;;;;43.20;20.95;;;;;;;;;;5090537;28;20088;-65
2021/12/06 07:05:11;;;;;;;46.60;20.00;;;;;;;;;;5090743;28;20028;-64
2021/12/06 07:07:37;;;;;;;48.60;21.45;;;;;;;;;;5092492;28;20028;-65
2021/12/06 07:10:04;;;;;;;39.17;21.15;;;;;;;;;;5082926;28;20494;-64
2021/12/06 07:12:30;;;;;;;46.00;22.95;;;;;;;;;;5071364;28;20036;-65
2021/12/06 07:14:56;;;;;;;44.67;21.25;;;;;;;;;;5070453;28;20028;-65
2021/12/06 07:17:22;;;;;;;42.72;20.60;;;;;;;;;;5080041;28;20551;-65
2021/12/06 07:19:48;;;;;;;44.40;21.63;;;;;;;;;;5075940;28;20115;-64
2021/12/06 07:22:14;;;;;;;45.55;21.77;;;;;;;;;;5071856;28;20048;-64
2021/12/06 07:24:40;;;;;;;41.25;20.20;;;;;;;;;;5071673;28;20077;-65
2021/12/06 07:27:06;;;;;;;37.08;19.85;;;;;;;;;;5070653;28;20034;-64
2021/12/06 07:29:33;;;;;;;40.10;19.33;;;;;;;;;;5071639;28;20338;-64
2021/12/06 07:32:00;;;;;;;43.65;20.42;;;;;;;;;;5071114;28;20412;-65
2021/12/06 07:34:26;;;;;;;45.03;22.58;;;;;;;;;;5070674;28;20036;-64
2021/12/06 07:36:52;;;;;;;48.90;23.52;;;;;;;;;;5071295;28;20013;-65
2021/12/06 07:39:18;;;;;;;44.70;20.65;;;;;;;;;;5069813;28;20396;-64
2021/12/06 07:41:44;;;;;;;46.85;22.52;;;;;;;;;;5071068;28;20448;-65
2021/12/06 07:44:10;;;;;;;50.83;23.63;;;;;;;;;;5071307;28;20024;-65
2021/12/06 07:46:36;;;;;;;40.33;20.77;;;;;;;;;;5069999;28;20021;-64
2021/12/06 07:49:02;;;;;;;44.38;23.17;;;;;;;;;;5071474;28;20099;-65
2021/12/06 07:51:30;;;;;;;41.40;21.35;;;;;;;;;;5070036;28;20031;-64
2021/12/06 07:53:57;;;;;;;39.45;21.20;;;;;;;;;;5069701;28;20156;-64
2021/12/06 07:56:24;;;;;;;41.60;20.02;;;;;;;;;;5079563;28;20024;-65
2021/12/06 07:58:50;;;;;;;44.38;19.85;;;;;;;;;;5077846;28;20198;-64
2021/12/06 08:01:17;;;;;;;46.83;20.90;;;;;;;;;;5086993;28;20030;-64
2021/12/06 08:03:43;;;;;;;44.60;21.42;;;;;;;;;;5082420;28;20059;-64
2021/12/06 08:06:10;;;;;;;45.00;22.60;;;;;;;;;;5090151;28;20074;-65
2021/12/06 08:08:38;;;;;;;48.70;21.42;;;;;;;;;;5090081;28;20089;-65
2021/12/06 08:11:10;;;;;;;49.60;22.70;;;;;;;;;;5082659;28;20024;-66
2021/12/06 08:13:37;;;;;;;44.17;23.17;;;;;;;;;;5069304;28;20500;-65
2021/12/06 08:16:05;;;;;;;48.72;22.50;;;;;;;;;;5069469;28;20372;-64
2021/12/06 08:18:31;;;;;;;40.92;20.20;;;;;;;;;;5070933;28;20082;-64
2021/12/06 08:20:59;;;;;;;45.80;23.00;;;;;;;;;;5071091;28;20074;-65
2021/12/06 08:23:25;;;;;;;38.83;18.42;;;;;;;;;;5070039;28;20096;-64
2021/12/06 08:25:53;;;;;;;37.65;17.35;;;;;;;;;;5069274;28;20071;-64
2021/12/06 08:28:19;;;;;;;34.67;18.60;;;;;;;;;;5070808;28;20096;-65
2021/12/06 08:30:46;;;;;;;40.17;19.40;;;;;;;;;;5070825;28;20028;-65
2021/12/06 08:33:12;;;;;;;39.28;19.05;;;;;;;;;;5078629;28;20437;-67
2021/12/06 08:35:40;;;;;;;36.53;19.05;;;;;;;;;;5074500;28;20024;-65
2021/12/06 08:38:07;;;;;;;34.70;18.63;;;;;;;;;;5070344;28;20514;-66
2021/12/06 08:40:33;;;;;;;37.50;18.45;;;;;;;;;;5070432;28;20367;-64
2021/12/06 08:42:59;;;;;;;35.35;16.85;;;;;;;;;;5068748;28;20032;-65
2021/12/06 08:45:26;;;;;;;33.65;16.73;;;;;;;;;;5070244;28;20346;-64
2021/12/06 08:47:53;;;;;;;38.25;17.92;;;;;;;;;;5070482;28;20012;-65
2021/12/06 08:50:22;;;;;;;34.00;17.90;;;;;;;;;;5070643;28;20025;-65
2021/12/06 08:52:48;;;;;;;36.80;17.05;;;;;;;;;;5070677;28;20137;-66
2021/12/06 08:55:14;;;;;;;36.83;19.27;;;2.70;99.90;;;;;;5069081;28;20048;-66
2021/12/06 08:57:40;;;;;;;34.25;18.02;;;3.90;99.90;;;;;;5069097;28;20032;-66
2021/12/06 09:00:10;;;;;;;34.63;17.73;;;3.90;99.90;;;;;;5069245;28;20028;-66
2021/12/06 09:02:37;;;;;;;38.65;19.55;;;3.90;99.90;;;;;;5069105;28;20048;-64
2021/12/06 09:05:03;;;;;;;38.78;18.17;;;3.90;99.90;;;;;;5070321;28;20107;-66
2021/12/06 09:07:29;;;;;;;38.60;18.80;;;3.90;99.90;;;;;;5069099;28;20029;-67
2021/12/06 09:09:56;;;;;;;39.30;18.55;;;3.90;99.90;;;;;;5069329;28;20025;-67
2021/12/06 09:12:30;;;;;;;38.17;18.58;;;4.00;99.90;;;;;;5070239;28;20016;-65
2021/12/06 09:14:58;;;;;;;40.10;22.25;;;3.80;99.90;;;;;;5069068;28;20024;-66
2021/12/06 09:17:25;;;;;;;47.78;20.48;;;3.80;99.90;;;;;;5070637;28;20024;-65
2021/12/06 09:19:51;;;;;;;42.42;20.35;;;3.80;99.90;;;;;;5070310;28;20032;-66
2021/12/06 09:22:18;;;;;;;43.80;21.70;;;3.70;99.90;;;;;;5070070;28;20461;-65
2021/12/06 09:24:44;;;;;;;46.85;22.33;;;3.70;99.90;;;;;;5068848;28;20040;-67
2021/12/06 09:27:10;;;;;;;48.38;22.23;;;3.90;99.90;;;;;;5069045;28;20464;-66
2021/12/06 09:29:37;;;;;;;48.78;22.67;;;3.90;99.90;;;;;;5068910;28;20095;-66
2021/12/06 09:32:09;;;;;;;46.05;22.60;;;3.70;99.90;;;;;;5070246;28;20056;-66
2021/12/06 09:34:39;;;;;;;50.08;23.90;;;3.70;99.90;;;;;;5071937;28;20178;-65
2021/12/06 09:37:05;;;;;;;44.22;20.98;;;3.70;99.90;;;;;;5083936;28;20016;-66
2021/12/06 09:39:32;;;;;;;44.72;22.65;;;3.70;99.90;;;;;;5094334;28;20036;-66
2021/12/06 09:41:58;;;;;;;42.97;21.42;;;3.70;99.90;;;;;;5092625;28;20111;-65
2021/12/06 09:44:24;;;;;;;41.28;20.30;;;3.90;99.90;;;;;;5093826;28;20020;-67
2021/12/06 09:46:50;;;;;;;39.30;20.23;;;3.80;99.90;;;;;;5094069;28;20602;-65
2021/12/06 09:49:20;;;;;;;39.15;20.02;;;3.80;99.90;;;;;;5094006;28;20361;-68
2021/12/06 09:51:53;;;;;;;38.72;21.05;;;3.70;99.90;;;;;;5090346;28;20017;-66
2021/12/06 09:54:24;;;;;;;41.45;21.15;;;;;;;;;;5079170;28;20028;-67
2021/12/06 09:56:51;;;;;;;40.35;19.40;;;;;;;;;;5083235;28;20398;-66
2021/12/06 09:59:19;;;;;;;41.28;20.38;;;;;;;;;;5079757;28;20082;-67
2021/12/06 10:01:50;;;;;;;39.90;19.40;;;;;;;;;;5098129;28;20023;-67
2021/12/06 10:04:18;;;;;;;36.38;18.45;;;;;;;;;;5084217;28;20093;-65
2021/12/06 10:06:45;;;;;;;35.97;19.90;;;;;;;;;;5084034;28;20048;-66
2021/12/06 10:09:11;;;;;;;37.90;20.85;;;;;;;;;;5082628;28;20066;-66
2021/12/06 10:11:38;;;;;;;34.40;18.83;;;;;;;;;;5081729;28;20055;-67
2021/12/06 10:14:04;;;;;;;36.90;20.08;;;;;;;;;;5079705;28;20070;-64
2021/12/06 10:16:31;;;;;;;36.80;19.73;;;;;;;;;;5081221;28;20257;-65
2021/12/06 10:18:58;;;;;;;35.00;19.08;;;3.70;99.90;;;;;;5079995;28;20023;-66
2021/12/06 10:21:27;;;;;;;40.55;17.80;;;4.20;99.90;;;;;;5087206;28;20031;-67
2021/12/06 10:23:54;;;;;;;38.40;20.45;;;4.20;99.90;;;;;;5092151;28;20020;-65
2021/12/06 10:26:24;;;;;;;38.15;19.50;;;4.20;99.90;;;;;;5093314;28;20032;-66
2021/12/06 10:28:55;;;;;;;35.17;18.58;;;4.30;99.90;;;;;;5088081;28;20035;-66
2021/12/06 10:31:21;;;;;;;39.20;19.60;;;4.30;99.90;;;;;;5072147;28;20059;-66
2021/12/06 10:33:48;;;;;;;42.45;22.15;;;4.20;99.90;;;;;;5091399;28;20414;-67
2021/12/06 10:36:17;;;;;;;38.22;21.23;;;4.20;99.90;;;;;;5091559;28;20028;-66
2021/12/06 10:38:53;;;;;;;36.63;19.27;;;4.40;99.90;;;;;;5091900;28;20020;-66
2021/12/06 10:41:28;;;;;;;44.03;20.85;;;4.40;99.90;;;;;;5092778;28;20175;-66
2021/12/06 10:43:58;;;;;;;39.70;20.38;;;4.20;99.90;;;;;;5092594;28;20430;-67
2021/12/06 10:46:25;;;;;;;37.03;19.05;;;4.10;99.90;;;;;;5092205;28;20024;-66
2021/12/06 10:48:54;;;;;;;38.70;19.08;;;4.00;99.90;;;;;;5088238;28;20123;-68
2021/12/06 10:51:23;;;;;;;41.10;22.00;;;3.80;99.90;;;;;;5079436;28;20563;-66
2021/12/06 10:53:57;;;;;;;;;;;4.10;99.90;;;;;;5082631;28;20044;-66
2021/12/06 10:56:31;;;;;;;;;;;4.20;99.90;;;;;;5080725;28;20407;-66
2021/12/06 10:58:57;;;;;;;;;;;4.40;99.90;;;;;;5086444;28;20338;-71
2021/12/06 11:01:27;;;;;;;;;;;4.40;99.90;;;;;;5091711;28;19911;-67
2021/12/06 11:03:54;;;;;;;;;;;4.30;99.90;;;;;;5092258;28;19934;-67
2021/12/06 11:06:21;;;;;;;;;;;4.50;99.90;;;;;;5091333;28;20032;-66
2021/12/06 11:08:48;;;;;;;;;;;4.40;99.90;;;;;;5093166;28;19947;-67
2021/12/06 11:11:15;;;;;;;;;;;4.50;99.90;;;;;;5092878;28;20303;-67
2021/12/06 11:13:42;;;;;;;;;;;4.60;99.90;;;;;;5091379;28;19915;-66
2021/12/06 11:16:22;;;;;;;;;;;4.80;99.90;;;;;;5083480;28;19916;-66
2021/12/06 11:18:55;;;;;;;;;;;4.60;99.90;;;;;;5072271;28;19958;-66
2021/12/06 11:21:22;;;;;;;;;;;4.20;99.90;;;;;;5072294;28;20302;-66
2021/12/06 11:24:00;;;;;;;;;;;4.40;99.90;;;;;;5072020;28;20281;-66
2021/12/06 11:26:26;;;;;;;;;;;4.40;99.90;;;;;;5071232;28;20268;-66
2021/12/06 11:28:51;;;;;;;;;;;4.40;99.90;;;;;;5070851;28;19904;-66
2021/12/06 11:31:18;;;;;;;;;;;4.20;99.90;;;;;;5070538;28;19954;-66
2021/12/06 11:33:55;;;;;;;;;;;4.10;99.90;;;;;;5073903;28;19958;-66
2021/12/06 11:36:23;;;;;;;;;;;4.20;99.90;;;;;;5071361;28;19995;-66
2021/12/06 11:39:19;;;;;;;;;;;4.30;99.90;;;;;;5083570;28;19905;-67
2021/12/06 11:41:48;;;;;;;;;;;4.30;99.90;;;;;;5077245;28;19907;-66
2021/12/06 11:44:17;;;;;;;;;;;4.50;99.90;;;;;;5090287;28;19934;-66
2021/12/06 11:46:42;;;;;;;;;;;4.40;99.90;;;;;;5091690;28;20243;-66
2021/12/06 11:49:08;;;;;;;;;;;;;;;;;;5091031;28;19911;-67
2021/12/06 11:51:34;;;;;;;;;;;;;;;;;;5090585;28;20329;-64
2021/12/06 11:54:00;;;;;;;;;;;;;;;;;;5090810;28;19904;-66
2021/12/06 11:56:26;;;;;;;;;;;;;;;;;;5090726;28;19943;-67
2021/12/06 11:58:52;;;;;;;;;;;;;;;;;;5090653;28;19903;-67
2021/12/06 12:01:18;;;;;;;;;;;;;;;;;;5091377;28;19904;-72
2021/12/06 12:03:44;;;;;;;;;;;;;;;;;;5090071;28;19904;-66
2021/12/06 12:06:10;;;;;;;;;;;;;;;;;;5090144;28;19927;-71
2021/12/06 12:08:35;;;;;;;;;;;;;;;;;;5091407;28;20006;-66
2021/12/06 12:11:01;;;;;;;;;;;;;;;;;;5090603;28;19957;-66
2021/12/06 12:13:27;;;;;;;;;;;;;;;;;;5090185;28;20386;-66
2021/12/06 12:15:53;;;;;;;;;;;;;;;;;;5098691;22;19927;-64
2021/12/06 12:18:19;;;;;;;;;;;;;;;;;;5066638;28;19990;-64
2021/12/06 12:20:46;;;;;;;;;;;;;;;;;;5052614;28;19999;-64
2021/12/06 12:23:12;;;;;;;;;;;;;;;;;;5051844;28;19905;-66
2021/12/06 12:25:43;;;;;;;;;;;;;;;;;;5052005;28;19919;-65
2021/12/06 12:29:00;;;;;;;;;;;;;;;;;;5052112;28;19994;-66
2021/12/06 12:30:59;;;;;;;;;;;;;;;;;;5047087;28;19943;-66
2021/12/06 12:33:25;;;;;;;;;;;;;;;;;;5050694;28;19905;-66
2021/12/06 12:35:51;;;;;;;;;;;;;;;;;;5050876;28;19992;-67
2021/12/06 12:38:17;;;;;;;;;;;;;;;;;;5033056;28;19948;-66
2021/12/06 12:40:43;;;;;;;;;;;;;;;;;;5030974;28;19927;-66
2021/12/06 12:43:09;;;;;;;;;;;;;;;;;;5030954;28;20257;-66
2021/12/06 12:45:35;;;;;;;;;;;;;;;;;;5032137;28;19909;-66
2021/12/06 12:48:01;;;;;;;;;;;;;;;;;;5032036;28;19963;-65
2021/12/06 12:50:30;;;;;;;;;;;;;;;;;;5030613;28;19989;-67
2021/12/06 12:52:55;;;;;;;;;;;;;;;;;;5030601;28;19920;-66
2021/12/06 12:55:21;;;;;;;;;;;;;;;;;;5030830;28;19905;-66
2021/12/06 12:57:47;;;;;;;;;;;;;;;;;;5030904;28;19912;-67
2021/12/06 13:00:13;;;;;;;;;;;;;;;;;;5030747;28;19905;-66
2021/12/06 13:02:39;;;;;;;;;;;;;;;;;;5031544;28;19916;-66
2021/12/06 13:05:07;;;;;;;;;;;;;;;;;;5030620;28;19909;-66
2021/12/06 13:07:33;;;;;;;;;;;;;;;;;;5032425;28;20369;-65
2021/12/06 13:10:00;;;;;;;;;;;;;;;;;;4726180;28;10000562;-65
2021/12/06 13:12:26;;;;;;;;;;;;;;;;;;5051275;28;20145;-65
2021/12/06 13:14:59;;;;;;;;;;;;;;;;;;5055944;28;19962;-65
2021/12/06 13:17:30;;;;;;;;;;;;;;;;;;5053476;28;20007;-66
2021/12/06 13:20:07;;;;;;;;;;;;;;;;;;5052491;28;19985;-66
2021/12/06 13:22:33;;;;;;;;;;;;;;;;;;5052681;28;19909;-66
2021/12/06 13:24:59;;;;;;;;;;;;;;;;;;5052429;28;20007;-65
2021/12/06 13:27:25;;;;;;;;;;;;;;;;;;5052964;28;19944;-66
2021/12/06 13:29:57;;;;;;;;;;;;;;;;;;4222973;28;10000498;-66
2021/12/06 13:32:23;;;;;;;;;;;;;;;;;;4702414;28;9999673;-65
2021/12/06 13:34:49;;;;;;;;;;;;;;;;;;5043479;28;19933;-64
2021/12/06 13:37:15;;;;;;;;;;;;;;;;;;5039965;28;20369;-64
2021/12/06 13:39:41;;;;;;;;;;;;;;;;;;5040264;28;20047;-63
2021/12/06 13:42:07;;;;;;;;;;;;;;;;;;5040983;28;20326;-65
2021/12/06 13:44:33;;;;;;;;;;;;;;;;;;5040573;28;19934;-65
2021/12/06 13:46:59;;;;;;;;;;;;;;;;;;5041467;28;19944;-66
2021/12/06 13:49:24;;;;;;;;;;;;;;;;;;5039615;28;20043;-66
2021/12/06 13:51:52;;;;;;;;;;;;;;;;;;5039949;28;19913;-65
2021/12/06 13:54:18;;;;;;;;;;;;;;;;;;5041733;28;19912;-67
2021/12/06 13:56:44;;;;;;;;;;;;;;;;;;5040406;28;19905;-66
2021/12/06 13:59:10;;;;;;;;;;;;;;;;;;5039073;28;19908;-65
2021/12/06 14:01:38;;;;;;;;;;;;;;;;;;5045307;28;19940;-65
2021/12/06 14:04:04;;;;;;;;;;;;;;;;;;5042652;28;19913;-65
2021/12/06 14:06:29;;;;;;;;;;;;;;;;;;5044488;28;19905;-64
2021/12/06 14:08:57;;;;;;;;;;;;;;;;;;5045708;28;19913;-64
2021/12/06 14:11:23;;;;;;;;;;;;;;;;;;5042616;28;19945;-64
2021/12/06 14:13:49;;;;;;;;;;;;;;;;;;5045387;28;19959;-65
2021/12/06 14:16:15;;;;;;;;;;;;;;;;;;5054525;28;19921;-65
2021/12/06 14:18:41;;;;;;;;;;;;;;;;;;5054830;28;19904;-64
2021/12/06 14:21:06;;;;;;;;;;;;;;;;;;5053571;28;20250;-63
2021/12/06 14:23:33;;;;;;;;;;;;;;;;;;5054651;28;19912;-66
2021/12/06 14:26:03;;;;;;;;;;;;;;;;;;4700455;28;10000395;-66
2021/12/06 14:28:29;;;;;;;;;;;;;;;;;;4702657;28;9999577;-66
2021/12/06 14:30:55;;;;;;;;;;;;;;;;;;5052214;28;20487;-65
2021/12/06 14:33:21;;;;;;;;;;;;;;;;;;5054091;28;20365;-66
2021/12/06 14:35:47;;;;;;;;;;;;;;;;;;5052872;28;19995;-65
2021/12/06 14:38:14;;;;;;;;;;;;;;;;;;4695960;28;10000329;-67